Thursday, December 12, 2019, 9:00 PM GMT
Back to Local

CYUL, Montreal / Pierre Elliot Trudeau International Airport, Que

Location: , , Canada Lat: 45.467
Local Time: 9:00 PM GMT (21:00 GMT) Lon: -73.75
Time Zone: GMT Elev: 101 ft

Show me the last for .
Show Decoded

2019-12-12 20:00 METAR CYUL 122000Z 23008KT 30SM BKN055 M05/M13 A3061 RMK SC7 SLP371 =
2019-12-12 19:00 METAR CYUL 121900Z 23007KT 30SM BKN055 M05/M14 A3062 RMK SC7 SLP373 =
2019-12-12 18:00 METAR CYUL 121800Z 23010KT 30SM FEW040 BKN058 M06/M15 A3063 RMK CF1SC7 CF TR
                 SLP378 =
2019-12-12 17:00 METAR CYUL 121700Z 23012KT 30SM FEW035 FEW055 FEW250 M06/M15 A3065 RMK CU1SC1CI1
                 CU TR CI TR SLP382 =
2019-12-12 16:00 METAR CYUL 121600Z 24011KT 30SM FEW035 SCT055 SCT250 M07/M16 A3067 RMK CU1SC3CI1
                 CU TR CI TR SLP390 =
2019-12-12 15:00 METAR CYUL 121500Z 25011KT 15SM FEW030 FEW120 FEW250 M08/M16 A3068 RMK CU1AC1CI1
                 CU TR AC TR SLP392 =
2019-12-12 14:00 METAR CYUL 121400Z 26009KT 230V290 30SM FEW030 FEW250 M09/M16 A3065 RMK CU1CI1
                 CU TR CI TR SLP383 =
2019-12-12 13:00 METAR CYUL 121300Z 26005KT 30SM FEW030 FEW250 M10/M16 A3061 RMK CU1CI1 CU TR
                 SLP371 =
2019-12-12 12:00 METAR CYUL 121200Z 27012KT 15SM FEW040 FEW250 M09/M16 A3058 RMK SC1CI1 SC TR CI
                 TR SLP359 =
2019-12-12 11:00 METAR CYUL 121100Z 28016G22KT 15SM SKC M09/M16 A3054 RMK SLP345 =
2019-12-12 10:00 METAR CYUL 121000Z 26008G15KT 15SM FEW055 M09/M16 A3051 RMK SC1 SC TR SLP336 =
2019-12-12 09:00 METAR CYUL 120900Z 26011G16KT 15SM FEW055 M09/M16 A3049 RMK SC1 SC TR SLP328 =
2019-12-12 08:00 METAR CYUL 120800Z 25011G16KT 15SM FEW055 M09/M17 A3047 RMK SC1 SC TR SLP322 =
2019-12-12 07:00 METAR CYUL 120700Z 24012KT 15SM FEW060 M09/M16 A3045 RMK SC1 SLP316 =
2019-12-12 06:00 METAR CYUL 120600Z 27013KT 15SM FEW060 M08/M17 A3042 RMK SC1 SC TR SLP305 =
2019-12-12 05:00 METAR CYUL 120500Z 27014G23KT 15SM FEW040 M08/M16 A3038 RMK SC1 SC TR SLP292 =
2019-12-12 04:00 METAR CYUL 120400Z 27020G30KT 15SM DRSN FEW040 M07/M16 A3033 RMK SC1 SC TR
                 SLP275 =
2019-12-12 03:00 METAR CYUL 120300Z 27019G25KT 15SM DRSN FEW016 M06/M14 A3028 RMK SF1 SF TR
                 SLP257 =
2019-12-12 02:00 METAR CYUL 120200Z 26021G28KT 10SM DRSN VCSH FEW013 M05/M13 A3022 RMK SF1 SF TR
                 SLP236 =
2019-12-12 01:00 METAR CYUL 120100Z 26023G36KT 10SM DRSN FEW012 FEW035 SCT060 M05/M11 A3017 RMK
                 SF1SC1SC3 SF TR SLP220 =
2019-12-12 00:39 METAR CYUL 120039Z 26019G30KT 5SM R24L/5000VP6000FT/D -SN BLSN FEW012 BKN040
                 M05/M07 A3017 RMK SF1SC6 PRESRR SLP221 =
2019-12-12 00:31 METAR CYUL 120031Z 26024G33KT 1SM R24L/P6000FT/D -SN BLSN BKN018 OVC035 M04/M08
                 A3017 RMK SN2SC5SC1 PRESRR SLP219 =
2019-12-12 00:27 METAR CYUL 120027Z 26019G27KT 1 1/2SM -SN DRSN SCT020 OVC035 M04/M09 A3016 RMK
                 SC3SC5 PRESRR SLP216 =
2019-12-12 00:00 METAR CYUL 120000Z 24018G25KT 15SM DRSN FEW025 FEW120 M04/M09 A3013 RMK SC1AC1
                 SC TR SLP205 =
2019-12-11 23:00 METAR CYUL 112300Z 23017KT 12SM DRSN FEW012 BKN120 M03/M07 A3010 RMK SF1AC6
                 SLP197 =
2019-12-11 22:20 METAR CYUL 112220Z 22009KT 210V280 5SM -SN FEW003 SCT030 OVC120 M04/M06 A3009
                 RMK SF2SC2AC4 SLP193 =
2019-12-11 22:00 METAR CYUL 112200Z 23003KT 220V290 2SM R24L/3000VP6000FT/D -SN FEW003 OVC040
                 M04/M05 A3009 RMK SF2NS6 /S03/ SLP194 =
2019-12-11 21:54 METAR CYUL 112154Z 27005KT 1/2SM R24L/5000VP6000FT/D SN VV003 M04/M05 A3010 RMK
                 SN8 SLP195 =
2019-12-11 21:48 METAR CYUL 112148Z 29007KT 1SM R24L/P6000FT/N -SN OVC013 M04/M05 A3009 RMK
                 SN2NS6 SLP193 =
2019-12-11 21:30 METAR CYUL 112130Z 24006KT 1 1/2SM R24L/5000VP6000FT/U -SN OVC022 M04/M05 A3008
                 RMK NS8 SLP191 =
2019-12-11 21:16 METAR CYUL 112116Z 24006KT 5/8SM R24L/6000FT/U -SN OVC013 M04/M05 A3008 RMK
                 SN4NS4 SLP191 =

Support USWX by starting your Amazon purchase here.